createdAt,value
2018-06-12T00:02:21.229Z,19.10
2018-06-12T00:04:50.407Z,19.10
2018-06-12T00:07:19.537Z,19.10
2018-06-12T00:09:48.670Z,19.00
2018-06-12T00:12:17.837Z,19.10
2018-06-12T00:14:46.925Z,18.90
2018-06-12T00:17:16.167Z,19.00
2018-06-12T00:19:45.332Z,18.80
2018-06-12T00:22:14.505Z,18.80
2018-06-12T00:24:43.723Z,18.70
2018-06-12T00:27:12.850Z,18.30
2018-06-12T00:29:42.064Z,18.40
2018-06-12T00:32:11.274Z,18.50
2018-06-12T00:34:40.425Z,18.50
2018-06-12T00:37:09.574Z,18.40
2018-06-12T00:39:38.743Z,18.50
2018-06-12T00:42:07.909Z,18.50
2018-06-12T00:44:37.102Z,18.80
2018-06-12T00:47:06.196Z,18.80
2018-06-12T00:49:35.356Z,18.70
2018-06-12T00:52:04.510Z,18.90
2018-06-12T00:54:33.704Z,18.80
2018-06-12T00:57:08.542Z,18.80
2018-06-12T00:59:37.746Z,18.80
2018-06-12T01:02:07.003Z,18.60
2018-06-12T01:04:36.197Z,18.60
2018-06-12T01:07:05.400Z,18.30
2018-06-12T01:09:34.508Z,18.30
2018-06-12T01:12:03.624Z,18.40
2018-06-12T01:14:32.744Z,18.40
2018-06-12T01:17:01.914Z,18.40
2018-06-12T01:19:31.038Z,18.30
2018-06-12T01:22:00.184Z,18.00
2018-06-12T01:24:29.412Z,18.00
2018-06-12T01:26:58.576Z,18.00
2018-06-12T01:29:27.769Z,18.00
2018-06-12T01:31:56.989Z,17.70
2018-06-12T01:34:26.193Z,17.90
2018-06-12T01:36:55.397Z,17.90
2018-06-12T01:39:24.535Z,18.00
2018-06-12T01:41:53.664Z,17.90
2018-06-12T01:44:22.812Z,18.00
2018-06-12T01:46:51.953Z,17.80
2018-06-12T01:49:21.145Z,17.80
2018-06-12T01:51:50.302Z,17.70
2018-06-12T01:54:19.475Z,17.70
2018-06-12T01:56:48.625Z,17.80
2018-06-12T01:59:17.790Z,17.70
2018-06-12T02:01:46.916Z,17.70
2018-06-12T02:04:16.063Z,17.70
2018-06-12T02:06:45.237Z,17.70
2018-06-12T02:09:14.363Z,17.80
2018-06-12T02:11:43.528Z,17.80
2018-06-12T02:14:12.666Z,17.50
2018-06-12T02:16:41.817Z,17.70
2018-06-12T02:19:10.943Z,17.70
2018-06-12T02:21:40.056Z,18.00
2018-06-12T02:24:09.158Z,17.90
2018-06-12T02:26:38.309Z,17.80
2018-06-12T02:29:07.449Z,17.70
2018-06-12T02:31:36.667Z,18.00
2018-06-12T02:34:05.849Z,18.10
2018-06-12T02:36:35.070Z,18.30
2018-06-12T02:39:05.537Z,18.20
2018-06-12T02:41:34.705Z,18.10
2018-06-12T02:44:03.984Z,18.20
2018-06-12T02:46:33.080Z,18.10
2018-06-12T02:49:02.189Z,18.20
2018-06-12T02:51:31.347Z,18.30
2018-06-12T02:54:00.515Z,18.50
2018-06-12T02:56:29.678Z,18.70
2018-06-12T02:58:58.894Z,18.60
2018-06-12T03:01:28.018Z,18.00
2018-06-12T03:03:57.191Z,17.90
2018-06-12T03:06:26.323Z,17.70
2018-06-12T03:08:55.470Z,17.60
2018-06-12T03:11:24.620Z,17.70
2018-06-12T03:13:53.771Z,17.90
2018-06-12T03:16:22.913Z,17.80
2018-06-12T03:18:51.974Z,17.50
2018-06-12T03:21:21.054Z,17.80
2018-06-12T03:23:50.173Z,17.50
2018-06-12T03:26:19.336Z,17.80
2018-06-12T03:28:48.491Z,17.90
2018-06-12T03:31:17.751Z,18.10
2018-06-12T03:33:46.856Z,18.30
2018-06-12T03:36:16.070Z,18.10
2018-06-12T03:38:45.198Z,18.30
2018-06-12T03:41:14.347Z,18.30
2018-06-12T03:43:43.456Z,18.40
2018-06-12T03:46:12.647Z,18.40
2018-06-12T03:48:41.863Z,18.00
2018-06-12T03:51:10.985Z,18.10
2018-06-12T03:53:40.501Z,18.20
2018-06-12T03:56:09.722Z,18.10
2018-06-12T03:58:38.832Z,18.20
2018-06-12T04:01:08.012Z,18.00
2018-06-12T04:03:37.167Z,18.10
2018-06-12T04:06:06.297Z,18.30
2018-06-12T04:08:35.446Z,18.60
2018-06-12T04:11:04.584Z,18.30
2018-06-12T04:13:33.668Z,18.30
2018-06-12T04:16:02.865Z,18.00
2018-06-12T04:18:32.070Z,18.00
2018-06-12T04:21:01.275Z,18.40
2018-06-12T04:23:30.435Z,18.10
2018-06-12T04:25:59.622Z,17.80
2018-06-12T04:28:28.746Z,17.80
2018-06-12T04:30:57.955Z,18.10
2018-06-12T04:33:27.169Z,18.20
2018-06-12T04:35:56.370Z,17.80
2018-06-12T04:38:25.495Z,18.00
2018-06-12T04:40:54.613Z,17.70
2018-06-12T04:43:23.882Z,17.90
2018-06-12T04:45:52.933Z,18.00
2018-06-12T04:48:22.053Z,17.50
2018-06-12T04:50:51.201Z,17.80
2018-06-12T04:53:20.374Z,17.90
2018-06-12T04:55:49.497Z,17.70
2018-06-12T04:58:18.617Z,17.50
2018-06-12T05:00:47.841Z,17.60
2018-06-12T05:03:16.963Z,17.80
2018-06-12T05:05:46.078Z,17.80
2018-06-12T05:08:15.249Z,18.20
2018-06-12T05:10:44.360Z,18.10
2018-06-12T05:13:13.511Z,18.40
2018-06-12T05:15:42.687Z,18.40
2018-06-12T05:18:12.842Z,18.80
2018-06-12T05:20:42.050Z,18.90
2018-06-12T05:23:11.337Z,18.70
2018-06-12T05:25:40.509Z,18.50
2018-06-12T05:28:09.628Z,18.60
2018-06-12T05:30:38.773Z,19.00
2018-06-12T05:33:07.951Z,19.10
2018-06-12T05:35:37.151Z,19.10
2018-06-12T05:38:06.318Z,19.10
2018-06-12T05:40:35.438Z,18.80
2018-06-12T05:43:04.722Z,18.90
2018-06-12T05:45:33.871Z,18.80
2018-06-12T05:48:02.994Z,18.90
2018-06-12T05:50:32.196Z,18.70
2018-06-12T05:53:01.369Z,18.40
2018-06-12T05:55:30.500Z,18.20
2018-06-12T05:57:59.632Z,18.50
2018-06-12T06:00:28.819Z,18.00
2018-06-12T06:02:57.918Z,18.10
2018-06-12T06:05:27.102Z,18.40
2018-06-12T06:07:59.006Z,18.00
2018-06-12T06:10:28.254Z,18.20
2018-06-12T06:12:57.356Z,18.40
2018-06-12T06:15:26.561Z,19.20
2018-06-12T06:17:55.684Z,19.20
2018-06-12T06:20:24.833Z,19.80
2018-06-12T06:22:54.016Z,20.20
2018-06-12T06:25:23.142Z,20.30
2018-06-12T06:27:52.358Z,20.10
2018-06-12T06:30:21.512Z,20.60
2018-06-12T06:32:50.715Z,21.00
2018-06-12T06:35:19.941Z,20.90
2018-06-12T06:37:49.094Z,21.20
2018-06-12T06:40:18.226Z,21.30
2018-06-12T06:42:47.344Z,21.20
2018-06-12T06:45:16.491Z,21.40
2018-06-12T06:47:45.632Z,21.20
2018-06-12T06:53:12.163Z,22.20
2018-06-12T06:55:41.283Z,22.60
2018-06-12T06:58:10.460Z,22.00
2018-06-12T07:00:39.657Z,21.50
2018-06-12T07:03:08.823Z,21.20
2018-06-12T07:05:37.998Z,21.00
2018-06-12T07:08:07.277Z,21.00
2018-06-12T07:10:36.406Z,21.20
2018-06-12T07:13:05.664Z,21.00
2018-06-12T07:15:34.833Z,20.20
2018-06-12T07:18:04.082Z,20.30
2018-06-12T07:21:20.690Z,19.80
2018-06-12T07:23:50.205Z,19.30
2018-06-12T07:26:19.350Z,19.20
2018-06-12T07:28:48.528Z,18.80
2018-06-12T07:31:17.626Z,18.70
2018-06-12T07:33:46.843Z,19.00
2018-06-12T07:36:15.937Z,19.30
2018-06-12T07:38:45.078Z,19.40
2018-06-12T07:41:14.196Z,19.70
2018-06-12T07:43:43.405Z,19.90
2018-06-12T07:46:12.584Z,19.70
2018-06-12T07:48:41.731Z,19.50
2018-06-12T07:51:11.507Z,19.70
2018-06-12T07:53:40.629Z,19.70
2018-06-12T07:56:09.851Z,20.70
2018-06-12T07:58:38.986Z,20.40
2018-06-12T08:01:08.188Z,19.80
2018-06-12T08:03:37.381Z,20.00
2018-06-12T08:06:06.583Z,19.90
2018-06-12T08:08:35.741Z,19.40
2018-06-12T08:11:04.929Z,19.50
2018-06-12T08:13:34.123Z,19.20
2018-06-12T08:16:03.189Z,19.50
2018-06-12T08:18:32.417Z,19.70
2018-06-12T08:21:01.551Z,20.20
2018-06-12T08:23:30.737Z,20.50
2018-06-12T08:25:59.846Z,19.90
2018-06-12T08:28:29.083Z,19.90
2018-06-12T08:30:58.229Z,19.80
2018-06-12T08:33:27.406Z,20.20
2018-06-12T08:35:56.561Z,20.70
2018-06-12T08:38:25.695Z,20.20
2018-06-12T08:40:54.867Z,20.40
2018-06-12T08:43:24.056Z,20.70
2018-06-12T08:45:53.194Z,20.90
2018-06-12T08:48:22.264Z,21.40
2018-06-12T08:50:51.434Z,21.20
2018-06-12T08:53:20.679Z,20.60
2018-06-12T08:55:49.840Z,20.60
2018-06-12T08:58:18.960Z,20.10
2018-06-12T09:00:48.131Z,21.00
2018-06-12T09:03:17.273Z,21.30
2018-06-12T09:05:46.447Z,21.90
2018-06-12T09:08:21.219Z,22.30
2018-06-12T09:10:50.843Z,23.10
2018-06-12T09:13:19.985Z,23.20
2018-06-12T09:15:49.142Z,23.90
2018-06-12T09:18:18.381Z,23.30
2018-06-12T09:20:47.516Z,22.50
2018-06-12T09:23:16.603Z,22.40
2018-06-12T09:25:45.765Z,22.10
2018-06-12T09:28:14.918Z,21.80
2018-06-12T09:30:44.118Z,21.40
2018-06-12T09:33:13.332Z,21.50
2018-06-12T09:35:42.505Z,21.20
2018-06-12T09:38:11.629Z,20.80
2018-06-12T09:40:40.737Z,20.50
2018-06-12T09:43:10.114Z,20.50
2018-06-12T09:45:39.593Z,20.70
2018-06-12T09:48:08.772Z,20.80
2018-06-12T09:50:37.983Z,20.80
2018-06-12T09:53:07.105Z,20.70
2018-06-12T09:55:36.205Z,21.70
2018-06-12T09:58:05.412Z,22.00
2018-06-12T10:00:39.903Z,21.90
2018-06-12T10:03:09.042Z,21.50
2018-06-12T10:05:38.185Z,22.00
2018-06-12T10:08:07.491Z,22.20
2018-06-12T10:10:36.746Z,22.70
2018-06-12T10:13:06.121Z,23.30
2018-06-12T10:15:35.356Z,23.40
2018-06-12T10:18:04.549Z,24.20
2018-06-12T10:20:33.685Z,25.00
2018-06-12T10:23:02.806Z,25.70
2018-06-12T10:25:32.007Z,24.80
2018-06-12T10:28:01.185Z,23.70
2018-06-12T10:30:30.478Z,24.30
2018-06-12T10:32:59.689Z,24.20
2018-06-12T10:35:28.772Z,24.50
2018-06-12T10:37:57.996Z,25.70
2018-06-12T10:40:27.243Z,25.70
2018-06-12T10:42:56.448Z,25.10
2018-06-12T10:45:25.621Z,24.60
2018-06-12T10:47:54.795Z,25.30
2018-06-12T10:50:23.999Z,25.90
2018-06-12T10:52:53.112Z,24.50
2018-06-12T10:55:22.310Z,24.60
2018-06-12T10:57:51.370Z,24.70
2018-06-12T11:00:20.579Z,25.90
2018-06-12T11:02:49.677Z,27.10
2018-06-12T11:05:18.855Z,27.10
2018-06-12T11:07:47.736Z,25.50
2018-06-12T11:10:16.900Z,24.90
2018-06-12T11:12:46.057Z,25.00
2018-06-12T11:15:15.230Z,26.30
2018-06-12T11:17:44.377Z,26.50
2018-06-12T11:20:16.504Z,25.60
2018-06-12T11:22:48.909Z,26.60
2018-06-12T11:25:19.640Z,26.60
2018-06-12T11:27:50.936Z,27.30
2018-06-12T11:30:20.154Z,28.50
2018-06-12T11:32:49.311Z,28.10
2018-06-12T11:35:18.493Z,30.00
2018-06-12T11:37:47.707Z,29.90
2018-06-12T11:40:16.905Z,30.60
2018-06-12T11:42:45.996Z,30.80
2018-06-12T11:45:15.217Z,31.80
2018-06-12T11:47:44.403Z,34.00
2018-06-12T11:50:15.555Z,34.10
2018-06-12T11:52:44.755Z,34.50
2018-06-12T11:55:13.934Z,36.10
2018-06-12T11:57:43.049Z,39.40
2018-06-12T12:00:12.139Z,40.20
2018-06-12T12:02:41.326Z,41.70
2018-06-12T12:05:10.465Z,43.00
2018-06-12T12:07:39.604Z,41.20
2018-06-12T12:10:08.776Z,42.80
2018-06-12T12:12:37.824Z,41.20
2018-06-12T12:15:07.175Z,40.80
2018-06-12T12:17:36.425Z,39.70
2018-06-12T12:20:05.529Z,40.20
2018-06-12T12:22:34.721Z,41.10
2018-06-12T12:25:03.871Z,41.40
2018-06-12T12:27:33.038Z,41.50
2018-06-12T12:30:02.146Z,43.20
2018-06-12T12:32:31.332Z,42.70
2018-06-12T12:35:00.508Z,40.80
2018-06-12T12:37:29.709Z,41.60
2018-06-12T12:39:58.849Z,39.70
2018-06-12T12:42:28.017Z,40.30
2018-06-12T12:44:57.165Z,42.80
2018-06-12T12:47:26.326Z,45.20
2018-06-12T12:49:55.501Z,44.50
2018-06-12T12:52:24.651Z,46.90
2018-06-12T12:54:53.801Z,47.60
2018-06-12T12:57:23.111Z,45.40
2018-06-12T12:59:52.367Z,45.60
2018-06-12T13:02:21.526Z,45.40
2018-06-12T13:04:50.653Z,46.30
2018-06-12T13:07:20.432Z,45.80
2018-06-12T13:09:49.522Z,47.70
2018-06-12T13:12:18.623Z,47.20
2018-06-12T13:14:47.823Z,40.50
2018-06-12T13:17:16.994Z,43.00
2018-06-12T13:19:46.129Z,43.30
2018-06-12T13:22:15.241Z,45.20
2018-06-12T13:24:44.435Z,44.10
2018-06-12T13:27:13.582Z,45.70
2018-06-12T13:29:42.756Z,45.00
2018-06-12T13:32:11.880Z,43.60
2018-06-12T13:34:41.051Z,41.70
2018-06-12T13:37:10.184Z,46.20
2018-06-12T13:39:39.305Z,48.60
2018-06-12T13:42:08.494Z,49.80
2018-06-12T13:44:37.628Z,52.10
2018-06-12T13:47:06.804Z,52.10
2018-06-12T13:49:35.942Z,55.00
2018-06-12T13:52:05.047Z,52.40
2018-06-12T13:54:34.228Z,51.60
2018-06-12T13:57:03.352Z,50.70
2018-06-12T13:59:32.497Z,52.90
2018-06-12T14:02:01.693Z,55.10
2018-06-12T14:04:30.867Z,55.30
2018-06-12T14:07:00.007Z,51.80
2018-06-12T14:09:29.145Z,52.70
2018-06-12T14:11:59.275Z,52.20
2018-06-12T14:14:28.465Z,46.40
2018-06-12T14:16:57.597Z,47.60
2018-06-12T14:19:26.798Z,47.10
2018-06-12T14:21:56.012Z,47.90
2018-06-12T14:24:25.161Z,44.10
2018-06-12T14:26:54.302Z,47.10
2018-06-12T14:29:23.423Z,48.10
2018-06-12T14:31:53.330Z,46.00
2018-06-12T14:34:23.872Z,51.50
2018-06-12T14:36:55.792Z,53.10
2018-06-12T14:39:24.913Z,50.30
2018-06-12T14:41:54.117Z,51.20
2018-06-12T14:44:23.249Z,50.20
2018-06-12T14:46:52.470Z,51.30
2018-06-12T14:49:21.605Z,49.40
2018-06-12T14:51:52.817Z,45.80
2018-06-12T14:54:22.279Z,45.70
2018-06-12T14:56:51.389Z,45.30
2018-06-12T14:59:20.498Z,44.90
2018-06-12T15:01:49.836Z,44.80
2018-06-12T15:04:20.723Z,46.20
2018-06-12T15:06:50.734Z,48.60
2018-06-12T15:09:19.997Z,50.80
2018-06-12T15:11:49.203Z,52.20
2018-06-12T15:14:18.418Z,52.40
2018-06-12T15:16:48.387Z,52.70
2018-06-12T15:19:17.501Z,52.60
2018-06-12T15:21:46.662Z,51.30
2018-06-12T15:24:15.837Z,47.10
2018-06-12T15:26:44.960Z,42.00
2018-06-12T15:29:14.101Z,40.80
2018-06-12T15:31:43.261Z,41.90
2018-06-12T15:34:12.450Z,45.10
2018-06-12T15:36:48.189Z,47.30
2018-06-12T15:39:17.379Z,45.20
2018-06-12T15:41:46.586Z,38.30
2018-06-12T15:44:17.764Z,37.40
2018-06-12T15:46:46.884Z,36.70
2018-06-12T15:49:16.112Z,37.50
2018-06-12T15:51:45.265Z,39.20
2018-06-12T15:54:14.357Z,41.90
2018-06-12T15:56:43.609Z,45.90
2018-06-12T15:59:12.696Z,48.20
2018-06-12T16:01:41.772Z,49.50
2018-06-12T16:04:10.872Z,49.30
2018-06-12T16:06:40.049Z,45.20
2018-06-12T16:09:09.610Z,42.10
2018-06-12T16:11:38.784Z,38.50
2018-06-12T16:14:08.022Z,38.50
2018-06-12T16:16:37.132Z,41.30
2018-06-12T16:19:06.340Z,42.20
2018-06-12T16:21:35.619Z,42.70
2018-06-12T16:24:04.998Z,41.40
2018-06-12T16:26:34.241Z,39.80
2018-06-12T16:29:03.338Z,37.10
2018-06-12T16:31:32.511Z,38.20
2018-06-12T16:34:01.640Z,35.60
2018-06-12T16:36:30.857Z,34.00
2018-06-12T16:39:00.060Z,33.10
2018-06-12T16:41:29.283Z,31.50
2018-06-12T16:43:58.326Z,30.00
2018-06-12T16:46:27.436Z,30.00
2018-06-12T16:48:56.581Z,30.10
2018-06-12T16:51:25.728Z,29.60
2018-06-12T16:53:54.877Z,29.50
2018-06-12T16:56:24.021Z,28.90
2018-06-12T16:58:53.219Z,28.90
2018-06-12T17:01:22.389Z,28.90
2018-06-12T17:03:51.554Z,29.10
2018-06-12T17:06:20.770Z,29.70
2018-06-12T17:08:49.918Z,31.80
2018-06-12T17:11:19.078Z,32.90
2018-06-12T17:13:48.245Z,30.40
2018-06-12T17:16:17.383Z,28.70
2018-06-12T17:18:46.561Z,28.70
2018-06-12T17:21:16.373Z,28.10
2018-06-12T17:23:46.734Z,28.10
2018-06-12T17:26:15.925Z,27.10
2018-06-12T17:28:45.066Z,26.60
2018-06-12T17:31:14.234Z,26.90
2018-06-12T17:33:43.413Z,26.70
2018-06-12T17:36:12.654Z,26.10
2018-06-12T17:38:41.579Z,26.00
2018-06-12T17:41:10.795Z,27.30
2018-06-12T17:43:40.471Z,26.90
2018-06-12T17:46:09.694Z,26.00
2018-06-12T17:48:38.872Z,24.70
2018-06-12T17:51:08.068Z,24.40
2018-06-12T17:53:37.173Z,24.60
2018-06-12T17:56:06.324Z,24.70
2018-06-12T17:58:35.570Z,24.40
2018-06-12T18:01:04.715Z,24.20
2018-06-12T18:03:33.912Z,24.30
2018-06-12T18:06:03.088Z,24.00
2018-06-12T18:08:32.300Z,24.10
2018-06-12T18:11:01.572Z,23.50
2018-06-12T18:13:31.119Z,23.50
2018-06-12T18:16:00.351Z,23.80
2018-06-12T18:18:29.553Z,23.90
2018-06-12T18:20:58.729Z,23.50
2018-06-12T18:23:27.984Z,23.60
2018-06-12T18:25:57.235Z,23.10
2018-06-12T18:28:26.433Z,23.00
2018-06-12T18:30:55.570Z,23.20
2018-06-12T18:33:24.755Z,22.80
2018-06-12T18:35:53.866Z,22.80
2018-06-12T18:38:23.124Z,23.20
2018-06-12T18:40:52.317Z,22.90
2018-06-12T18:43:21.865Z,22.50
2018-06-12T18:45:51.093Z,22.60
2018-06-12T18:48:20.318Z,22.40
2018-06-12T18:50:49.557Z,22.50
2018-06-12T18:53:18.752Z,22.20
2018-06-12T18:55:48.004Z,21.60
2018-06-12T18:58:17.225Z,21.20
2018-06-12T19:00:46.419Z,21.00
2018-06-12T19:03:15.571Z,21.10
2018-06-12T19:05:44.760Z,20.90
2018-06-12T19:08:13.940Z,21.00
2018-06-12T19:10:43.228Z,20.80
2018-06-12T19:13:12.427Z,20.40
2018-06-12T19:15:41.651Z,20.10
2018-06-12T19:18:10.844Z,20.30
2018-06-12T19:20:40.038Z,20.40
2018-06-12T19:23:09.287Z,20.50
2018-06-12T19:25:38.555Z,20.30
2018-06-12T19:28:07.983Z,20.30
2018-06-12T19:30:37.220Z,20.10
2018-06-12T19:33:06.462Z,19.90
2018-06-12T19:35:35.940Z,19.90
2018-06-12T19:38:05.192Z,19.80
2018-06-12T19:40:34.524Z,19.60
2018-06-12T19:43:03.825Z,19.60
2018-06-12T19:45:32.987Z,19.80
2018-06-12T19:48:02.170Z,19.70
2018-06-12T19:50:31.437Z,19.40
2018-06-12T19:53:00.683Z,19.30
2018-06-12T19:55:30.152Z,19.30
2018-06-12T19:57:59.415Z,18.90
2018-06-12T20:00:28.706Z,18.80
2018-06-12T20:02:57.888Z,18.70
2018-06-12T20:05:27.358Z,18.40
2018-06-12T20:07:56.653Z,18.60
2018-06-12T20:10:25.885Z,18.60
2018-06-12T20:12:55.081Z,18.80
2018-06-12T20:15:24.273Z,18.70
2018-06-12T20:17:53.447Z,18.60
2018-06-12T20:20:22.681Z,18.70
2018-06-12T20:22:51.892Z,18.50
2018-06-12T20:25:21.148Z,18.60
2018-06-12T20:27:50.425Z,18.60
2018-06-12T20:30:19.741Z,18.90
2018-06-12T20:32:48.919Z,19.10
2018-06-12T20:35:18.115Z,18.90
2018-06-12T20:37:47.413Z,19.30
2018-06-12T20:40:16.616Z,18.80
2018-06-12T20:42:45.859Z,18.70
2018-06-12T20:45:15.041Z,18.90
2018-06-12T20:47:44.597Z,18.90
2018-06-12T20:50:13.937Z,18.80
2018-06-12T20:52:43.761Z,19.00
2018-06-12T20:55:12.977Z,19.50
2018-06-12T20:57:42.223Z,19.40
2018-06-12T21:00:11.405Z,19.60
2018-06-12T21:02:41.226Z,19.50
2018-06-12T21:05:10.454Z,19.70
2018-06-12T21:07:40.173Z,19.60
2018-06-12T21:10:09.366Z,19.90
2018-06-12T21:12:38.614Z,19.80
2018-06-12T21:15:07.806Z,19.60
2018-06-12T21:17:36.922Z,19.50
2018-06-12T21:20:06.158Z,19.50
2018-06-12T21:22:35.313Z,19.10
2018-06-12T21:25:04.617Z,19.40
2018-06-12T21:27:33.485Z,19.20
2018-06-12T21:30:02.695Z,19.00
2018-06-12T21:32:31.919Z,19.10
2018-06-12T21:35:01.161Z,19.00
2018-06-12T21:37:30.335Z,19.10
2018-06-12T21:39:59.467Z,19.20
2018-06-12T21:42:28.598Z,19.60
2018-06-12T21:44:57.741Z,19.50
2018-06-12T21:47:26.868Z,19.50
2018-06-12T21:49:55.986Z,19.50
2018-06-12T21:52:25.069Z,19.10
2018-06-12T21:54:54.269Z,19.40
2018-06-12T21:57:23.436Z,19.30
2018-06-12T21:59:52.566Z,19.30
2018-06-12T22:02:21.676Z,19.30
2018-06-12T22:04:50.860Z,19.00
2018-06-12T22:07:20.007Z,19.00
2018-06-12T22:09:49.187Z,19.10
2018-06-12T22:12:18.423Z,19.40
2018-06-12T22:14:47.569Z,19.30
2018-06-12T22:17:16.731Z,19.30
2018-06-12T22:19:45.890Z,19.20
2018-06-12T22:22:14.999Z,19.70
2018-06-12T22:24:44.193Z,19.50
2018-06-12T22:27:13.308Z,19.40
2018-06-12T22:29:42.489Z,19.30
2018-06-12T22:32:11.614Z,19.20
2018-06-12T22:34:40.772Z,19.40
2018-06-12T22:37:09.955Z,19.60
2018-06-12T22:39:39.115Z,19.50
2018-06-12T22:42:08.278Z,19.30
2018-06-12T22:44:37.546Z,19.60
2018-06-12T22:47:06.738Z,19.60
2018-06-12T22:49:35.910Z,19.60
2018-06-12T22:52:05.082Z,19.80
2018-06-12T22:54:34.218Z,19.50
2018-06-12T22:57:03.454Z,19.70
2018-06-12T22:59:32.642Z,19.30
2018-06-12T23:02:01.798Z,19.70
2018-06-12T23:04:31.018Z,19.10
2018-06-12T23:07:00.213Z,19.20
2018-06-12T23:09:29.418Z,19.30
2018-06-12T23:11:58.670Z,19.30
2018-06-12T23:14:27.813Z,19.50
2018-06-12T23:16:56.942Z,19.60
2018-06-12T23:19:26.101Z,19.70
2018-06-12T23:21:59.822Z,19.80
2018-06-12T23:24:29.064Z,19.90
2018-06-12T23:26:58.221Z,19.90
2018-06-12T23:29:27.378Z,19.80
2018-06-12T23:31:56.507Z,19.70
2018-06-12T23:34:25.699Z,19.20
2018-06-12T23:36:54.810Z,19.20
2018-06-12T23:39:24.079Z,19.40
2018-06-12T23:41:53.160Z,19.50
2018-06-12T23:44:22.307Z,19.50
2018-06-12T23:46:51.447Z,19.30
2018-06-12T23:49:20.642Z,19.40
2018-06-12T23:51:49.808Z,19.60
2018-06-12T23:54:18.916Z,19.50
2018-06-12T23:56:48.044Z,19.70
2018-06-12T23:59:17.206Z,19.70
